Time;durP1;ratioP1;P1;durP2;ratioP2;P2;SDS_P1;SDS_P2;PMS_P1;PMS_P2;Temp;Humidity;BMP_temperature;BMP_pressure;BME280_temperature;BME280_humidity;BME280_pressure;Samples;Min_cycle;Max_cycle;Signal;HPM_P1;HPM_P2
2023/06/07 00:01:42;;;;;;;7.13;4.20;;;;;;;12.83;100.00;99947.16;5093853;28;20043;-85
2023/06/07 00:04:26;;;;;;;5.05;4.53;;;;;;;12.92;100.00;99966.31;5090752;28;20081;-85
2023/06/07 00:07:13;;;;;;;5.82;4.00;;;;;;;12.91;100.00;99962.03;5089611;28;20123;-85
2023/06/07 00:09:57;;;;;;;5.40;3.80;;;;;;;12.92;100.00;99984.75;5091767;28;20113;-85
2023/06/07 00:12:42;;;;;;;4.25;3.80;;;;;;;12.60;100.00;99955.22;5092368;28;20562;-85
2023/06/07 00:15:26;;;;;;;6.80;4.25;;;;;;;12.45;100.00;99949.16;5090207;28;20047;-83
2023/06/07 00:18:10;;;;;;;5.10;3.97;;;;;;;12.61;100.00;99956.88;5089589;28;20464;-85
2023/06/07 00:20:54;;;;;;;4.22;3.60;;;;;;;12.86;100.00;99962.59;5091992;28;20649;-84
2023/06/07 00:23:38;;;;;;;4.43;3.67;;;;;;;13.08;100.00;99974.97;5090385;28;20097;-84
2023/06/07 00:26:22;;;;;;;7.80;4.97;;;;;;;12.82;100.00;99966.59;5091669;28;20074;-84
2023/06/07 00:29:06;;;;;;;4.28;3.88;;;;;;;12.98;100.00;99976.13;5091992;28;20355;-84
2023/06/07 00:31:51;;;;;;;5.35;3.72;;;;;;;13.05;100.00;99970.09;5092433;28;20435;-83
2023/06/07 00:34:35;;;;;;;5.80;3.67;;;;;;;12.75;100.00;99954.34;5090601;28;20100;-84
2023/06/07 00:37:19;;;;;;;4.35;3.70;;;;;;;12.99;100.00;99976.91;5092651;28;20043;-84
2023/06/07 00:40:05;;;;;;;5.93;3.60;;;;;;;13.06;100.00;99969.88;5091331;28;20035;-83
2023/06/07 00:42:49;;;;;;;5.45;3.60;;;;;;;13.00;100.00;99947.75;5092665;28;20131;-84
2023/06/07 00:45:33;;;;;;;4.75;3.45;;;;;;;12.75;100.00;99935.91;5092219;28;20054;-84
2023/06/07 00:48:17;;;;;;;6.50;3.47;;;;;;;12.96;100.00;99978.09;5093344;28;20035;-87
2023/06/07 00:51:02;;;;;;;5.18;3.45;;;;;;;12.71;100.00;99952.09;5092510;28;20047;-87
2023/06/07 00:53:48;;;;;;;3.60;3.30;;;;;;;13.06;100.00;99963.81;5095498;28;20130;-87
2023/06/07 00:56:32;;;;;;;6.22;3.78;;;;;;;13.12;100.00;99976.22;5099957;27;20123;-88
2023/06/07 00:59:20;;;;;;;4.63;3.67;;;;;;;13.00;100.00;99983.81;5120863;27;20045;-86
2023/06/07 01:02:05;;;;;;;6.93;4.18;;;;;;;12.91;100.00;99975.22;5112380;27;20118;-87
2023/06/07 01:04:49;;;;;;;6.82;4.03;;;;;;;12.47;100.00;99966.41;5138028;27;20046;-86
2023/06/07 01:07:33;;;;;;;4.65;3.75;;;;;;;12.73;100.00;99945.81;5122220;27;20038;-86
2023/06/07 01:10:17;;;;;;;7.13;3.90;;;;;;;12.92;100.00;99963.66;5120206;27;20444;-88
2023/06/07 01:13:03;;;;;;;4.40;4.00;;;;;;;13.08;100.00;99970.53;5136398;27;20056;-87
2023/06/07 01:15:48;;;;;;;4.20;3.80;;;;;;;13.16;100.00;99974.03;5127881;27;20050;-87
2023/06/07 01:18:33;;;;;;;5.97;3.85;;;;;;;13.14;100.00;99964.50;5138174;27;20077;-88
2023/06/07 01:21:21;;;;;;;4.93;4.10;;;;;;;12.98;100.00;99970.84;5121153;27;20395;-89
2023/06/07 01:24:07;;;;;;;4.47;4.00;;;;;;;12.86;100.00;99962.59;5119421;27;20461;-87
2023/06/07 01:26:53;;;;;;;6.35;4.10;;;;;;;12.82;100.00;99960.53;5130438;27;20346;-85
2023/06/07 01:29:37;;;;;;;4.00;3.42;;;;;;;12.69;100.00;99938.31;5130264;27;20086;-84
2023/06/07 01:32:22;;;;;;;4.50;3.22;;;;;;;13.00;100.00;99973.28;5116823;27;20069;-84
2023/06/07 01:35:08;;;;;;;4.63;3.47;;;;;;;12.94;100.00;99984.56;5131429;27;20049;-86
2023/06/07 01:37:53;;;;;;;3.67;3.38;;;;;;;12.89;100.00;99942.16;5117863;27;20045;-86
2023/06/07 01:40:38;;;;;;;7.38;3.50;;;;;;;12.74;100.00;99952.72;5117978;27;20038;-86
2023/06/07 01:43:23;;;;;;;4.00;3.10;;;;;;;12.59;100.00;99960.66;5134647;27;20539;-86
2023/06/07 01:46:08;;;;;;;6.65;3.40;;;;;;;12.74;100.00;99960.63;5133656;27;20088;-86
2023/06/07 01:48:52;;;;;;;3.47;3.15;;;;;;;12.96;100.00;99986.00;5133065;27;20089;-87
2023/06/07 01:51:36;;;;;;;6.57;3.80;;;;;;;12.80;100.00;99973.88;5133892;27;20396;-86
2023/06/07 01:54:20;;;;;;;3.72;3.15;;;;;;;12.69;100.00;99967.28;5118562;27;20038;-88
2023/06/07 01:57:26;;;;;;;5.00;3.50;;;;;;;12.68;100.00;99978.00;5132408;27;20524;-88
2023/06/07 02:00:13;;;;;;;4.93;3.75;;;;;;;12.73;100.00;99977.44;5133799;27;20038;-87
2023/06/07 02:03:16;;;;;;;4.95;4.45;;;;;;;12.27;100.00;99968.78;5134383;27;20100;-86
2023/06/07 02:06:07;;;;;;;6.15;5.10;;;;;;;12.33;100.00;99968.06;5133043;27;20047;-85
2023/06/07 02:08:54;;;;;;;7.07;4.40;;;;;;;12.23;100.00;99960.44;5130937;27;20457;-86
2023/06/07 02:11:39;;;;;;;6.03;4.72;;;;;;;11.85;100.00;99935.00;5131567;28;20092;-86
2023/06/07 02:14:26;;;;;;;5.47;4.70;;;;;;;12.12;100.00;99932.75;5131513;28;20030;-85
2023/06/07 02:17:12;;;;;;;7.25;4.50;;;;;;;12.07;100.00;99948.28;5129843;28;20412;-86
2023/06/07 02:19:56;;;;;;;7.57;5.25;;;;;;;11.92;100.00;99926.38;5129918;28;20042;-85
2023/06/07 02:22:40;;;;;;;6.85;4.97;;;;;;;12.11;100.00;99927.69;5132318;28;20400;-84
2023/06/07 02:25:25;;;;;;;6.18;4.75;;;;;;;12.33;100.00;99940.94;5114140;28;20034;-84
2023/06/07 02:28:09;;;;;;;6.97;5.07;;;;;;;12.11;100.00;99936.41;5131399;28;20041;-85
2023/06/07 02:30:57;;;;;;;8.00;5.13;;;;;;;12.31;100.00;99927.94;5113580;28;20033;-85
2023/06/07 02:33:41;;;;;;;8.98;5.10;;;;;;;12.16;100.00;99909.53;5116975;28;20046;-84
2023/06/07 02:36:25;;;;;;;7.57;5.68;;;;;;;12.09;100.00;99930.50;5117301;28;20157;-85
2023/06/07 02:39:09;;;;;;;9.43;4.70;;;;;;;11.91;100.00;99903.72;5115981;28;20042;-84
2023/06/07 02:41:53;;;;;;;6.18;4.22;;;;;;;11.88;100.00;99927.75;5132123;27;20050;-84
2023/06/07 02:44:37;;;;;;;4.90;3.70;;;;;;;12.04;100.00;99940.75;5116457;28;20046;-84
2023/06/07 02:47:21;;;;;;;7.28;4.20;;;;;;;12.27;100.00;99929.31;5132142;28;20054;-84
2023/06/07 02:50:06;;;;;;;5.55;3.63;;;;;;;12.12;100.00;99932.75;5130628;28;20042;-85
2023/06/07 02:52:50;;;;;;;5.80;3.38;;;;;;;12.43;100.00;99933.53;5131935;27;20091;-85
2023/06/07 02:55:34;;;;;;;4.82;4.30;;;;;;;12.01;100.00;99927.97;5115161;28;20079;-85
2023/06/07 02:58:18;;;;;;;5.65;4.05;;;;;;;12.16;100.00;99913.97;5117430;28;20104;-83
2023/06/07 03:01:07;;;;;;;6.85;3.60;;;;;;;12.05;100.00;99897.66;5116021;28;20100;-84
2023/06/07 03:03:51;;;;;;;5.10;3.80;;;;;;;12.22;100.00;99903.53;5116847;28;20080;-84
2023/06/07 03:06:40;;;;;;;5.47;4.13;;;;;;;12.53;100.00;99935.88;5115684;27;20038;-86
2023/06/07 03:09:25;;;;;;;4.85;3.95;;;;;;;12.28;100.00;99917.78;5135503;27;20057;-86
2023/06/07 03:12:10;;;;;;;6.55;4.57;;;;;;;12.53;100.00;99931.44;5135976;27;20050;-85
2023/06/07 03:14:54;;;;;;;4.93;4.43;;;;;;;12.24;100.00;99941.00;5105827;27;20388;-83
2023/06/07 03:17:41;;;;;;;7.03;4.68;;;;;;;12.03;100.00;99933.88;5133330;27;20042;-85
2023/06/07 03:20:28;;;;;;;9.05;5.13;;;;;;;12.10;100.00;99916.34;5132492;27;20046;-85
2023/06/07 03:23:12;;;;;;;7.22;5.30;;;;;;;12.14;100.00;99912.34;5120406;27;20111;-86
2023/06/07 03:25:58;;;;;;;17.17;10.55;;;;;;;11.96;100.00;99936.38;5119115;27;20535;-85
2023/06/07 03:28:42;;;;;;;19.88;14.02;;;;;;;12.05;100.00;99928.41;5133873;27;20592;-85
2023/06/07 03:31:28;;;;;;;20.25;14.10;;;;;;;12.12;100.00;99935.41;5120052;27;20091;-85
2023/06/07 03:34:12;;;;;;;21.05;14.35;;;;;;;11.95;100.00;99912.88;5135291;27;20544;-85
2023/06/07 03:36:56;;;;;;;22.63;14.93;;;;;;;11.99;100.00;99925.47;5134505;27;20038;-85
2023/06/07 03:39:40;;;;;;;22.00;14.88;;;;;;;12.07;100.00;99914.09;5135335;27;20061;-84
2023/06/07 03:42:24;;;;;;;15.93;12.40;;;;;;;12.37;100.00;99932.47;5135394;27;20134;-84
2023/06/07 03:45:09;;;;;;;16.67;12.18;;;;;;;12.07;100.00;99921.97;5134790;27;20137;-85
2023/06/07 03:47:53;;;;;;;16.23;10.60;;;;;;;12.45;100.00;99933.38;5119069;27;20034;-86
2023/06/07 03:50:38;;;;;;;14.82;9.52;;;;;;;12.25;100.00;99891.81;5134685;27;20046;-87
2023/06/07 03:53:22;;;;;;;16.25;11.18;;;;;;;12.50;100.00;99928.34;5134699;27;20088;-86
2023/06/07 03:56:06;;;;;;;13.40;9.05;;;;;;;12.18;100.00;99897.00;5119405;27;20111;-85
2023/06/07 03:58:50;;;;;;;11.43;8.05;;;;;;;12.26;100.00;99909.25;5118620;27;20057;-85
2023/06/07 04:01:34;;;;;;;10.57;7.82;;;;;;;12.06;100.00;99865.09;5118922;27;20053;-85
2023/06/07 04:04:18;;;;;;;12.77;8.50;;;;;;;12.25;100.00;99878.66;5117113;27;20532;-86
2023/06/07 04:07:02;;;;;;;12.80;8.30;;;;;;;12.52;100.00;99913.19;5134600;27;20500;-87
2023/06/07 04:09:48;;;;;;;12.50;8.27;;;;;;;12.29;100.00;99895.72;5115813;27;20384;-85
2023/06/07 04:12:32;;;;;;;10.18;8.38;;;;;;;12.47;100.00;99902.41;5119453;27;20045;-86
2023/06/07 04:15:16;;;;;;;10.27;8.13;;;;;;;12.46;100.00;99895.50;5134591;27;20076;-85
2023/06/07 04:18:00;;;;;;;10.75;8.15;;;;;;;12.62;100.00;99900.56;5118939;27;20050;-86
2023/06/07 04:20:44;;;;;;;11.43;7.57;;;;;;;12.29;100.00;99893.09;5134490;27;20046;-85
2023/06/07 04:23:27;;;;;;;13.07;7.15;;;;;;;12.24;100.00;99906.00;5118931;27;20039;-86
2023/06/07 04:26:11;;;;;;;7.18;6.47;;;;;;;12.42;100.00;99895.88;5134716;27;20045;-85
2023/06/07 04:28:56;;;;;;;6.88;5.97;;;;;;;12.40;100.00;99879.47;5117403;27;20384;-86
2023/06/07 04:31:41;;;;;;;7.13;6.00;;;;;;;12.43;100.00;99883.50;5119190;27;20449;-86
2023/06/07 04:34:25;;;;;;;9.77;6.47;;;;;;;12.57;100.00;99885.28;5133254;27;20412;-85
2023/06/07 04:37:09;;;;;;;7.25;6.55;;;;;;;12.82;100.00;99906.00;5118833;27;20037;-86
2023/06/07 04:39:54;;;;;;;6.88;5.60;;;;;;;12.75;100.00;99880.59;5134261;27;20088;-84
2023/06/07 04:42:38;;;;;;;8.32;6.00;;;;;;;12.68;100.00;99899.78;5118542;27;20778;-86
2023/06/07 04:45:31;;;;;;;12.02;5.85;;;;;;;12.79;100.00;99905.59;5131611;27;20446;-86
2023/06/07 04:48:15;;;;;;;7.25;5.90;;;;;;;12.76;100.00;99874.31;5132471;27;20042;-86
2023/06/07 04:51:05;;;;;;;6.97;5.78;;;;;;;12.69;100.00;99867.19;5132792;27;20396;-85
2023/06/07 04:53:49;;;;;;;9.45;6.03;;;;;;;12.63;100.00;99907.44;5130896;27;20045;-85
2023/06/07 04:56:33;;;;;;;8.77;6.40;;;;;;;12.49;100.00;99906.50;5133317;27;20091;-85
2023/06/07 04:59:18;;;;;;;8.35;6.72;;;;;;;12.47;100.00;99887.41;5118042;27;20087;-85
2023/06/07 05:02:02;;;;;;;10.65;7.32;;;;;;;12.82;100.00;99889.41;5117247;27;20078;-85
2023/06/07 05:04:46;;;;;;;11.20;7.32;;;;;;;12.40;100.00;99854.94;5117449;27;20119;-85
2023/06/07 05:07:32;;;;;;;11.65;6.80;;;;;;;12.65;100.00;99889.63;5130798;27;20042;-85
2023/06/07 05:10:19;;;;;;;10.70;7.00;;;;;;;12.50;100.00;99878.31;5132588;27;20030;-84
2023/06/07 05:13:03;;;;;;;12.05;7.43;;;;;;;12.70;100.00;99884.63;5131507;27;20073;-86
2023/06/07 05:15:50;;;;;;;13.85;7.95;;;;;;;12.70;100.00;99918.06;5128612;27;20068;-85
2023/06/07 05:18:36;;;;;;;10.50;8.23;;;;;;;12.57;100.00;99900.28;5116772;27;20046;-84
2023/06/07 05:21:20;;;;;;;13.30;10.15;;;;;;;11.92;100.00;99887.75;5129868;27;20037;-86
2023/06/07 05:24:04;;;;;;;15.15;12.20;;;;;;;12.34;100.00;99901.25;5118359;27;20045;-87
2023/06/07 05:26:48;;;;;;;21.92;14.30;;;;;;;11.99;100.00;99877.31;5134749;27;20763;-88
2023/06/07 05:29:32;;;;;;;24.95;17.17;;;;;;;12.56;100.00;99914.44;5133075;27;20092;-86
2023/06/07 05:32:16;;;;;;;25.83;19.30;;;;;;;12.54;100.00;99921.72;5130895;27;20073;-85
2023/06/07 05:35:02;;;;;;;25.60;21.23;;;;;;;12.71;100.00;99907.31;5132737;27;20095;-85
2023/06/07 05:37:48;;;;;;;32.70;20.77;;;;;;;12.92;100.00;99918.88;5132559;27;20119;-85
2023/06/07 05:40:32;;;;;;;29.63;21.38;;;;;;;12.92;100.00;99905.69;5132856;27;20548;-85
2023/06/07 05:43:16;;;;;;;26.85;20.98;;;;;;;13.24;100.00;99927.28;5130820;27;20037;-86
2023/06/07 05:46:00;;;;;;;28.70;22.48;;;;;;;12.96;100.00;99906.13;5129525;27;20408;-84
2023/06/07 05:48:44;;;;;;;24.70;22.00;;;;;;;13.21;100.00;99911.84;5117818;27;20062;-84
2023/06/07 05:51:28;;;;;;;25.60;19.80;;;;;;;12.97;100.00;99919.16;5129981;27;20096;-85
2023/06/07 05:54:12;;;;;;;27.65;20.08;;;;;;;12.30;100.00;99894.72;5130123;27;20081;-84
2023/06/07 05:56:56;;;;;;;31.48;22.58;;;;;;;12.86;100.00;99930.16;5131868;27;20061;-84
2023/06/07 05:59:40;;;;;;;32.35;23.45;;;;;;;13.16;100.00;99919.47;5130632;27;20038;-85
2023/06/07 06:02:24;;;;;;;27.50;21.15;;;;;;;12.99;100.00;99925.03;5126104;27;20084;-84
2023/06/07 06:05:08;;;;;;;26.27;20.83;;;;;;;12.65;100.00;99880.91;5131211;27;20418;-84
2023/06/07 06:07:54;;;;;;;28.88;22.70;;;;;;;13.29;100.00;99924.88;5128981;28;20092;-83
2023/06/07 06:10:38;;;;;;;26.55;21.48;;;;;;;13.03;100.00;99903.56;5115895;28;20038;-86
2023/06/07 06:13:22;;;;;;;30.33;23.40;;;;;;;12.93;100.00;99895.97;5142988;28;20088;-85
2023/06/07 06:16:06;;;;;;;34.63;25.25;;;;;;;12.78;100.00;99888.16;5140796;28;20042;-85
2023/06/07 06:18:51;;;;;;;31.08;25.25;;;;;;;12.80;100.00;99923.03;5127137;28;20084;-85
2023/06/07 06:21:35;;;;;;;30.13;23.73;;;;;;;13.12;100.00;99918.22;5140070;28;20050;-85
2023/06/07 06:24:20;;;;;;;33.58;25.55;;;;;;;13.00;100.00;99896.84;5121641;28;20116;-85
2023/06/07 06:27:06;;;;;;;29.52;24.65;;;;;;;13.27;100.00;99883.91;5134924;28;20202;-86
2023/06/07 06:29:50;;;;;;;30.42;24.45;;;;;;;13.70;100.00;99909.38;5123209;28;20058;-86
2023/06/07 06:32:35;;;;;;;35.85;24.08;;;;;;;13.61;100.00;99900.00;5133826;28;20035;-85
2023/06/07 06:35:19;;;;;;;29.88;23.05;;;;;;;13.80;100.00;99894.03;5121825;28;20089;-85
2023/06/07 06:38:03;;;;;;;29.27;22.98;;;;;;;14.15;100.00;99924.84;5121678;28;20065;-85
2023/06/07 06:40:47;;;;;;;28.15;20.80;;;;;;;13.65;100.00;99896.75;5116192;28;20076;-86
2023/06/07 06:43:31;;;;;;;27.60;21.90;;;;;;;13.99;100.00;99904.88;5136816;27;20062;-86
2023/06/07 06:46:15;;;;;;;27.75;23.17;;;;;;;13.93;100.00;99887.16;5134169;27;20092;-84
2023/06/07 06:48:59;;;;;;;;;;;;;;;14.02;100.00;99930.88;5134506;27;20046;-83
2023/06/07 06:51:43;;;;;;;28.17;22.38;;;;;;;14.30;100.00;99929.97;5133608;27;20363;-83
2023/06/07 06:54:27;;;;;;;29.38;20.42;;;;;;;14.47;100.00;99924.34;5136125;27;20062;-82
2023/06/07 06:57:12;;;;;;;27.88;19.08;;;;;;;14.17;100.00;99914.91;5133313;27;20182;-84
2023/06/07 06:59:56;;;;;;;25.30;18.30;;;;;;;14.52;100.00;99946.53;5136849;27;20119;-86
2023/06/07 07:02:40;;;;;;;24.05;18.17;;;;;;;14.18;100.00;99927.09;5136065;27;20060;-86
2023/06/07 07:05:24;;;;;;;28.30;19.98;;;;;;;14.11;100.00;99934.97;5137146;27;20042;-87
2023/06/07 07:08:09;;;;;;;22.45;18.60;;;;;;;13.92;100.00;99933.03;5137291;27;20150;-87
2023/06/07 07:10:53;;;;;;;25.67;20.63;;;;;;;14.55;100.00;99938.19;5129759;27;20108;-86
2023/06/07 07:13:37;;;;;;;23.75;19.17;;;;;;;14.92;100.00;99937.91;5118175;27;20109;-85
2023/06/07 07:16:21;;;;;;;22.85;17.10;;;;;;;14.44;100.00;99957.25;5122428;27;20135;-84
2023/06/07 07:19:05;;;;;;;20.77;16.50;;;;;;;14.39;100.00;99936.72;5134859;27;20042;-85
2023/06/07 07:21:51;;;;;;;21.70;18.63;;;;;;;14.45;100.00;99958.91;5120008;27;20046;-83
2023/06/07 07:24:35;;;;;;;21.15;14.57;;;;;;;14.88;100.00;99963.13;5130435;27;20560;-85
2023/06/07 07:27:22;;;;;;;14.60;13.10;;;;;;;15.04;100.00;99951.38;5122729;27;20084;-84
2023/06/07 07:30:07;;;;;;;22.10;14.45;;;;;;;14.44;100.00;99930.84;5105138;27;20078;-86
2023/06/07 07:32:53;;;;;;;18.15;15.40;;;;;;;14.95;100.00;99942.81;5136320;27;20058;-84
2023/06/07 07:35:37;;;;;;;21.08;16.48;;;;;;;15.17;100.00;99955.84;5126512;27;20144;-89
2023/06/07 07:38:21;;;;;;;22.52;17.80;;;;;;;15.05;100.00;99957.47;5121876;27;20058;-83
2023/06/07 07:41:05;;;;;;;24.17;19.20;;;;;;;15.11;100.00;99959.28;5136058;27;20052;-85
2023/06/07 07:43:49;;;;;;;20.95;17.98;;;;;;;14.60;100.00;99960.56;5131364;27;20054;-85
2023/06/07 07:46:33;;;;;;;24.85;18.65;;;;;;;14.70;100.00;99951.25;5134751;27;20090;-84
2023/06/07 07:49:17;;;;;;;22.83;17.17;;;;;;;14.31;100.00;99946.66;5131808;27;20038;-85
2023/06/07 07:52:02;;;;;;;16.83;14.98;;;;;;;14.33;100.00;99940.16;5133208;27;20392;-89
2023/06/07 07:54:47;;;;;;;20.75;15.02;;;;;;;14.73;100.00;99944.78;5130841;27;20047;-87
2023/06/07 07:57:31;;;;;;;17.83;13.85;;;;;;;14.97;100.00;99927.56;5120959;27;20050;-86
2023/06/07 08:00:16;;;;;;;16.45;14.02;;;;;;;15.62;98.78;99946.47;5137626;27;20549;-87
2023/06/07 08:03:03;;;;;;;24.50;14.73;;;;;;;15.45;98.42;99941.59;5136597;27;20405;-84
2023/06/07 08:05:47;;;;;;;18.17;16.23;;;;;;;15.56;97.80;99932.22;5132424;27;20080;-85
2023/06/07 08:08:31;;;;;;;23.08;16.45;;;;;;;15.67;96.66;99938.72;5121405;27;20053;-84
2023/06/07 08:11:15;;;;;;;19.83;16.70;;;;;;;15.71;97.30;99946.06;5137378;27;20058;-86
2023/06/07 08:14:00;;;;;;;26.92;20.00;;;;;;;15.51;98.17;99955.84;5137525;27;20442;-88
2023/06/07 08:16:44;;;;;;;25.00;19.25;;;;;;;15.06;100.00;99957.28;5122028;27;20037;-87
2023/06/07 08:19:28;;;;;;;24.60;18.80;;;;;;;15.02;100.00;99956.03;5136884;27;21208;-87
2023/06/07 08:22:12;;;;;;;25.70;17.73;;;;;;;14.99;100.00;99927.34;5115345;27;20046;-87
2023/06/07 08:24:56;;;;;;;21.33;18.55;;;;;;;15.76;97.42;99926.94;5121290;27;20099;-86
2023/06/07 08:27:40;;;;;;;19.67;17.70;;;;;;;16.44;94.71;99939.97;5121221;27;20080;-86
2023/06/07 08:30:24;;;;;;;22.23;17.65;;;;;;;16.60;93.22;99928.88;5118273;27;20062;-88
2023/06/07 08:33:08;;;;;;;20.75;18.60;;;;;;;16.52;92.33;99942.41;5121468;27;20060;-86
2023/06/07 08:35:52;;;;;;;18.77;16.52;;;;;;;16.73;91.78;99941.25;5136465;27;20131;-86
2023/06/07 08:38:41;;;;;;;19.50;17.05;;;;;;;16.48;92.07;99927.91;5121603;27;20038;-86
2023/06/07 08:41:27;;;;;;;19.73;17.73;;;;;;;16.41;92.41;99939.38;5121482;27;20038;-88
2023/06/07 08:44:11;;;;;;;20.95;16.65;;;;;;;15.32;94.26;99910.69;5121034;27;20414;-88
2023/06/07 08:46:57;;;;;;;20.85;17.85;;;;;;;15.54;94.83;99944.84;5118989;27;20042;-87
2023/06/07 08:49:43;;;;;;;26.40;17.38;;;;;;;15.78;95.87;99930.19;5135900;27;20123;-88
2023/06/07 08:52:30;;;;;;;20.02;17.08;;;;;;;16.58;94.37;99911.56;5120800;27;20041;-86
2023/06/07 08:55:15;;;;;;;20.13;15.85;;;;;;;16.60;92.38;99928.88;5119853;27;20050;-87
2023/06/07 08:58:00;;;;;;;18.40;14.88;;;;;;;16.96;91.33;99935.41;5120043;27;20093;-87
2023/06/07 09:00:44;;;;;;;22.55;16.20;;;;;;;16.48;92.23;99928.75;5120853;27;20495;-88
2023/06/07 09:03:28;;;;;;;20.58;16.17;;;;;;;15.91;92.82;99899.41;5119175;27;20091;-89
2023/06/07 09:06:15;;;;;;;18.13;14.55;;;;;;;16.45;93.00;99928.34;5136306;27;20530;-87
2023/06/07 09:08:59;;;;;;;15.98;14.27;;;;;;;16.75;92.01;99943.69;5122858;27;20391;-86
2023/06/07 09:11:43;;;;;;;;;;;;;;;16.91;91.31;99948.50;5121258;27;20033;-87
2023/06/07 09:14:29;;;;;;;19.42;14.52;;;;;;;16.33;89.81;99913.13;5105125;27;19921;-89
2023/06/07 09:17:13;;;;;;;21.58;15.85;;;;;;;16.52;90.38;99914.03;5135650;27;20041;-86
2023/06/07 09:19:57;;;;;;;15.98;14.18;;;;;;;16.42;90.64;99914.50;5119821;27;20053;-88
2023/06/07 09:22:41;;;;;;;18.52;16.25;;;;;;;16.82;90.32;99944.47;5134910;27;20128;-85
2023/06/07 09:25:27;;;;;;;23.42;17.05;;;;;;;17.41;87.74;99925.69;5135316;27;20485;-87
2023/06/07 09:28:14;;;;;;;20.88;17.40;;;;;;;17.61;86.24;99940.63;5119434;27;20037;-87
2023/06/07 09:30:59;;;;;;;20.80;18.33;;;;;;;17.32;86.26;99916.41;5118112;27;20151;-87
2023/06/07 09:33:46;;;;;;;20.10;18.00;;;;;;;17.23;86.51;99921.97;5119427;27;20057;-86
2023/06/07 09:36:30;;;;;;;21.92;17.98;;;;;;;17.06;86.88;99934.94;5113485;27;20046;-87
2023/06/07 09:39:23;;;;;;;20.30;17.35;;;;;;;17.81;86.09;99937.78;5118953;27;20077;-86
2023/06/07 09:42:17;;;;;;;21.63;15.65;;;;;;;18.16;85.33;99944.38;5117337;27;20499;-87
2023/06/07 09:45:15;;;;;;;20.67;15.80;;;;;;;18.41;84.55;99942.44;5118703;27;20084;-84
2023/06/07 09:48:04;;;;;;;18.90;16.00;;;;;;;18.05;84.06;99944.06;5117669;27;20135;-86
2023/06/07 09:50:58;;;;;;;21.13;15.10;;;;;;;18.40;83.75;99932.81;5119380;27;20504;-89
2023/06/07 09:53:56;;;;;;;19.13;13.80;;;;;;;18.29;82.59;99941.56;5131529;27;20038;-90
2023/06/07 09:56:41;;;;;;;18.40;12.32;;;;;;;17.99;82.41;99959.03;5141461;27;20058;-83
2023/06/07 09:59:25;;;;;;;15.25;12.23;;;;;;;17.46;82.66;99944.41;5133896;27;20092;-86
2023/06/07 10:02:25;;;;;;;14.30;12.48;;;;;;;18.38;82.66;99937.56;5132493;27;20050;-85
2023/06/07 10:05:12;;;;;;;17.23;13.55;;;;;;;17.63;81.91;99939.38;5129260;27;20140;-86
2023/06/07 10:07:57;;;;;;;16.40;14.15;;;;;;;18.48;81.66;99931.72;5130729;27;20034;-87
2023/06/07 10:10:45;;;;;;;13.13;11.73;;;;;;;18.72;81.17;99939.78;5133100;27;20083;-87
2023/06/07 10:13:29;;;;;;;13.00;11.63;;;;;;;19.05;79.29;99937.69;5135974;28;20446;-86
2023/06/07 10:16:16;;;;;;;16.73;11.20;;;;;;;18.92;79.51;99934.19;5119852;27;20050;-88
2023/06/07 10:19:25;;;;;;;13.82;10.88;;;;;;;19.11;79.59;99939.44;5133801;28;20096;-87
2023/06/07 10:22:17;;;;;;;13.10;10.48;;;;;;;18.59;79.82;99934.66;5133209;28;20127;-87
2023/06/07 10:25:20;;;;;;;11.07;9.55;;;;;;;18.75;80.20;99943.84;5118121;28;20503;-88
2023/06/07 10:28:24;;;;;;;10.68;8.30;;;;;;;17.75;80.58;99933.34;5115236;28;20073;-87
2023/06/07 10:31:10;;;;;;;;;;;;;;;18.43;80.77;99942.22;5131234;28;20112;-86
2023/06/07 10:33:59;;;;;;;11.30;8.55;;;;;;;18.73;79.94;99941.41;5117240;28;19964;-87
2023/06/07 10:36:44;;;;;;;14.27;10.77;;;;;;;17.92;80.49;99893.75;5116606;28;20061;-87
2023/06/07 10:39:28;;;;;;;13.90;10.75;;;;;;;18.58;80.53;99941.81;5117490;28;20079;-89
2023/06/07 10:42:13;;;;;;;14.13;10.73;;;;;;;19.04;79.79;99928.91;5118198;28;20092;-85
2023/06/07 10:44:57;;;;;;;16.23;12.57;;;;;;;18.35;80.24;99943.34;5118304;28;20111;-85
2023/06/07 10:47:43;;;;;;;9.95;8.63;;;;;;;19.15;79.38;99926.47;5117841;28;20088;-87
2023/06/07 10:50:27;;;;;;;13.05;9.45;;;;;;;19.65;77.92;99925.22;5128971;28;20061;-88
2023/06/07 10:53:11;;;;;;;10.25;8.98;;;;;;;19.12;77.57;99925.91;5118779;28;20101;-88
2023/06/07 10:55:55;;;;;;;9.77;8.75;;;;;;;19.35;78.22;99931.50;5130152;28;20082;-88
2023/06/07 10:58:40;;;;;;;12.68;8.73;;;;;;;20.03;76.24;99939.91;5133973;27;20551;-88
2023/06/07 11:01:25;;;;;;;14.85;8.60;;;;;;;20.26;76.02;99932.91;5119570;28;20038;-88
2023/06/07 11:04:36;;;;;;;10.38;7.75;;;;;;;19.97;75.32;99938.19;5116433;28;20042;-88
2023/06/07 11:07:22;;;;;;;9.70;6.63;;;;;;;20.37;74.65;99936.59;5114771;28;20050;-89
2023/06/07 11:10:07;;;;;;;11.82;5.88;;;;;;;20.41;73.84;99935.84;5134976;28;20039;-88
2023/06/07 11:12:54;;;;;;;8.32;5.60;;;;;;;20.08;73.88;99924.03;5126300;28;20167;-84
2023/06/07 11:15:38;;;;;;;6.50;4.60;;;;;;;20.86;72.46;99925.50;5118221;28;20062;-85
2023/06/07 11:18:22;;;;;;;10.10;5.00;;;;;;;21.25;71.53;99925.59;5121224;28;20114;-87
2023/06/07 11:21:06;;;;;;;10.52;5.53;;;;;;;20.67;72.58;99922.19;5138189;28;20096;-88
2023/06/07 11:24:12;;;;;;;8.50;5.60;;;;;;;20.94;71.05;99946.44;5123282;28;20099;-87
2023/06/07 11:26:56;;;;;;;10.43;6.72;;;;;;;20.22;71.77;99910.44;5118090;28;20038;-84
2023/06/07 11:29:42;;;;;;;14.70;7.35;;;;;;;20.27;71.77;99923.88;5131302;27;20504;-89
2023/06/07 11:32:36;;;;;;;11.38;5.95;;;;;;;20.59;71.68;99928.72;5119363;27;20084;-89
2023/06/07 11:35:21;;;;;;;;;;;;;;;21.26;70.84;99937.06;5123722;27;20545;-88
2023/06/07 11:38:05;;;;;;;9.75;5.95;;;;;;;20.69;71.00;99923.56;5121536;27;19921;-89
2023/06/07 11:40:49;;;;;;;14.32;7.40;;;;;;;20.67;71.87;99901.66;5121816;27;20130;-89
2023/06/07 11:43:33;;;;;;;10.20;7.25;;;;;;;20.00;73.13;99932.38;5123119;27;20080;-89
2023/06/07 11:46:19;;;;;;;9.30;7.07;;;;;;;19.37;73.42;99919.56;5120410;27;20042;-88
2023/06/07 11:49:05;;;;;;;10.45;6.30;;;;;;;19.37;74.26;99926.75;5135741;27;20064;-88
2023/06/07 11:51:49;;;;;;;7.53;5.90;;;;;;;20.21;72.15;99909.63;5123178;27;20087;-89
2023/06/07 11:54:34;;;;;;;8.23;4.88;;;;;;;20.35;71.85;99912.81;5124108;27;20042;-88
2023/06/07 11:57:18;;;;;;;5.30;4.65;;;;;;;20.75;71.50;99908.47;5124554;27;20069;-89
2023/06/07 12:00:17;;;;;;;5.68;4.60;;;;;;;21.79;68.65;99915.41;5124131;27;20077;-88
2023/06/07 12:03:03;;;;;;;8.23;4.93;;;;;;;21.09;69.76;99921.06;5124193;27;20503;-88
2023/06/07 12:05:47;;;;;;;7.28;4.22;;;;;;;21.10;70.58;99917.34;5124450;27;20046;-89
2023/06/07 12:08:32;;;;;;;8.73;4.70;;;;;;;21.32;69.61;99897.91;5137468;27;20068;-89
2023/06/07 12:11:20;;;;;;;5.57;4.35;;;;;;;22.15;67.63;99915.03;5136032;27;20108;-89
2023/06/07 12:14:06;;;;;;;7.93;3.88;;;;;;;22.06;66.78;99890.59;5121630;27;20088;-88
2023/06/07 12:16:49;;;;;;;6.70;3.67;;;;;;;22.50;66.47;99895.09;5122374;27;20400;-89
2023/06/07 12:19:33;;;;;;;5.95;4.10;;;;;;;22.46;66.46;99897.44;5121259;27;20401;-89
2023/06/07 12:22:17;;;;;;;9.65;4.35;;;;;;;22.61;65.63;99893.31;5122668;27;20401;-89
2023/06/07 12:25:10;;;;;;;8.15;4.50;;;;;;;22.59;65.73;99914.97;5121491;27;20038;-89
2023/06/07 12:27:54;;;;;;;5.47;4.45;;;;;;;22.38;65.97;99901.34;5136833;27;20046;-88
2023/06/07 12:30:41;;;;;;;7.38;4.80;;;;;;;21.90;67.38;99903.75;5121443;27;20095;-89
2023/06/07 12:33:28;;;;;;;7.20;4.78;;;;;;;22.42;64.87;99915.03;5121491;27;20418;-86
2023/06/07 12:36:13;;;;;;;6.30;4.40;;;;;;;21.92;64.96;99901.69;5136826;27;20049;-89
2023/06/07 12:39:03;;;;;;;7.07;4.55;;;;;;;22.89;64.10;99908.28;5119171;27;20124;-88
2023/06/07 12:41:47;;;;;;;6.07;4.75;;;;;;;22.91;63.77;99895.44;5131533;27;20472;-89
2023/06/07 12:44:32;;;;;;;8.23;4.70;;;;;;;22.80;63.99;99907.94;5119616;27;20511;-88
2023/06/07 12:47:16;;;;;;;7.18;4.50;;;;;;;23.19;63.03;99877.47;5133343;27;20056;-90